Time;durP1;ratioP1;P1;durP2;ratioP2;P2;SDS_P1;SDS_P2;PMS_P1;PMS_P2;Temp;Humidity;BMP_temperature;BMP_pressure;BME280_temperature;BME280_humidity;BME280_pressure;Samples;Min_cycle;Max_cycle;Signal;HPM_P1;HPM_P2
2023/06/25 00:00:48;;;;;;;10.73;6.15;;;19.20;99.90;;;;;;5092243;28;20036;-61
2023/06/25 00:03:14;;;;;;;14.15;6.68;;;19.30;99.90;;;;;;5065734;28;20036;-61
2023/06/25 00:05:39;;;;;;;9.43;6.28;;;19.50;99.90;;;;;;5091913;28;20032;-61
2023/06/25 00:08:05;;;;;;;9.23;6.18;;;19.10;99.90;;;;;;5083700;28;20040;-61
2023/06/25 00:10:31;;;;;;;11.57;6.85;;;18.50;99.90;;;;;;5092817;28;20035;-62
2023/06/25 00:12:57;;;;;;;9.30;6.40;;;19.00;99.90;;;;;;5092029;28;20129;-62
2023/06/25 00:15:22;;;;;;;10.75;6.53;;;19.30;99.90;;;;;;5065380;28;20044;-62
2023/06/25 00:17:49;;;;;;;9.52;6.38;;;19.10;99.90;;;;;;5091904;28;20071;-62
2023/06/25 00:20:16;;;;;;;10.55;6.82;;;19.40;99.90;;;;;;5071911;28;20048;-62
2023/06/25 00:22:43;;;;;;;9.20;6.65;;;19.30;99.90;;;;;;5092003;28;20439;-62
2023/06/25 00:25:09;;;;;;;9.93;6.75;;;19.10;99.90;;;;;;5091436;28;20032;-62
2023/06/25 00:27:35;;;;;;;13.18;7.10;;;18.50;99.90;;;;;;5092167;28;20108;-62
2023/06/25 00:30:02;;;;;;;12.40;7.22;;;18.30;99.90;;;;;;5091362;28;20067;-61
2023/06/25 00:32:28;;;;;;;11.63;7.18;;;19.00;99.90;;;;;;5073898;28;20040;-62
2023/06/25 00:34:57;;;;;;;12.48;7.45;;;18.90;99.90;;;;;;5068677;28;20132;-62
2023/06/25 00:37:23;;;;;;;10.25;7.50;;;19.60;99.90;;;;;;5070490;28;20394;-62
2023/06/25 00:39:49;;;;;;;11.27;7.43;;;19.20;99.90;;;;;;5087221;28;20051;-61
2023/06/25 00:42:16;;;;;;;10.75;6.97;;;18.50;99.90;;;;;;5091304;28;20040;-62
2023/06/25 00:44:42;;;;;;;14.85;7.82;;;19.20;99.90;;;;;;5091399;28;20051;-62
2023/06/25 00:47:12;;;;;;;12.85;7.47;;;18.60;99.90;;;;;;5090181;28;20036;-62
2023/06/25 00:49:42;;;;;;;13.57;7.55;;;18.90;99.90;;;;;;5085102;28;20054;-62
2023/06/25 00:52:10;;;;;;;11.57;7.15;;;19.20;99.90;;;;;;5064947;28;20052;-62
2023/06/25 00:54:41;;;;;;;12.00;8.25;;;18.40;99.90;;;;;;5067518;28;20048;-61
2023/06/25 00:57:08;;;;;;;11.05;7.90;;;19.20;99.90;;;;;;5090377;28;20047;-62
2023/06/25 00:59:37;;;;;;;12.93;7.65;;;18.70;99.90;;;;;;5084762;28;20044;-61
2023/06/25 01:02:15;;;;;;;14.35;7.97;;;19.30;99.90;;;;;;5052037;28;20044;-62
2023/06/25 01:04:45;;;;;;;11.93;7.72;;;;;;;;;;5097190;22;20046;-59
2023/06/25 01:07:17;;;;;;;13.43;7.72;;;19.30;99.90;;;;;;5134775;22;20095;-62
2023/06/25 01:09:50;;;;;;;13.43;7.90;;;19.20;99.90;;;;;;5059749;28;20049;-62
2023/06/25 01:12:15;;;;;;;11.95;7.22;;;19.20;99.90;;;;;;5058259;28;20405;-61
2023/06/25 01:14:41;;;;;;;11.63;8.35;;;18.10;99.90;;;;;;5064825;28;20040;-62
2023/06/25 01:17:08;;;;;;;11.52;7.88;;;18.90;99.90;;;;;;5102662;22;20048;-57
2023/06/25 01:19:35;;;;;;;11.98;7.88;;;19.00;99.90;;;;;;5082589;28;20083;-56
2023/06/25 01:22:03;;;;;;;9.65;7.45;;;18.30;99.90;;;;;;5070275;28;20048;-56
2023/06/25 01:24:29;;;;;;;13.25;8.80;;;18.90;99.90;;;;;;5092005;28;20495;-56
2023/06/25 01:26:56;;;;;;;12.65;8.35;;;18.50;99.90;;;;;;5069698;28;20040;-55
2023/06/25 01:29:22;;;;;;;11.73;8.95;;;18.20;99.90;;;;;;5063650;28;20489;-56
2023/06/25 01:31:51;;;;;;;10.98;8.57;;;17.90;99.90;;;;;;5071810;28;20105;-56
2023/06/25 01:34:21;;;;;;;12.43;8.10;;;19.00;99.90;;;;;;5081947;28;20040;-56
2023/06/25 01:36:49;;;;;;;11.90;8.05;;;18.10;99.90;;;;;;5068320;28;20042;-55
2023/06/25 01:39:16;;;;;;;13.00;9.40;;;18.40;99.90;;;;;;5079881;28;20074;-56
2023/06/25 01:41:46;;;;;;;12.40;8.45;;;18.00;99.90;;;;;;5067729;28;20044;-56
2023/06/25 01:44:14;;;;;;;13.10;7.72;;;18.10;99.90;;;;;;5090036;28;20378;-55
2023/06/25 01:46:40;;;;;;;11.75;7.95;;;18.20;99.90;;;;;;5058695;28;20089;-56
2023/06/25 01:49:05;;;;;;;11.30;7.85;;;18.50;99.90;;;;;;5089674;28;20135;-56
2023/06/25 01:51:31;;;;;;;11.35;8.38;;;18.30;99.90;;;;;;5082887;28;20036;-56
2023/06/25 01:53:58;;;;;;;11.75;8.75;;;18.10;99.90;;;;;;5078292;28;20036;-56
2023/06/25 01:56:23;;;;;;;13.90;8.77;;;18.80;99.90;;;;;;5081707;28;20043;-56
2023/06/25 01:58:53;;;;;;;12.32;7.78;;;17.80;99.90;;;;;;5085926;28;20406;-56
2023/06/25 02:01:22;;;;;;;12.00;7.78;;;17.60;99.90;;;;;;5081618;28;20039;-55
2023/06/25 02:03:48;;;;;;;15.73;8.52;;;18.50;99.90;;;;;;5063016;28;20040;-56
2023/06/25 02:06:15;;;;;;;12.35;8.55;;;18.10;99.90;;;;;;5060046;28;20378;-56
2023/06/25 02:08:41;;;;;;;11.27;7.55;;;18.70;99.90;;;;;;5089793;28;20520;-56
2023/06/25 02:11:07;;;;;;;12.05;8.07;;;18.20;99.90;;;;;;5071466;28;20064;-56
2023/06/25 02:13:34;;;;;;;15.18;8.38;;;17.90;99.90;;;;;;5090109;28;20040;-56
2023/06/25 02:16:00;;;;;;;12.93;8.98;;;18.30;99.90;;;;;;5085133;28;20040;-56
2023/06/25 02:18:27;;;;;;;18.15;9.18;;;17.70;99.90;;;;;;5077928;28;20428;-55
2023/06/25 02:20:52;;;;;;;11.38;8.43;;;17.90;99.90;;;;;;5084077;28;20448;-54
2023/06/25 02:23:18;;;;;;;15.13;8.88;;;18.00;99.90;;;;;;5068183;28;20031;-55
2023/06/25 02:25:44;;;;;;;15.38;10.02;;;18.00;99.90;;;;;;5054826;28;20044;-53
2023/06/25 02:28:09;;;;;;;12.50;8.88;;;18.00;99.90;;;;;;5085303;28;20068;-54
2023/06/25 02:30:35;;;;;;;13.18;9.43;;;17.70;99.90;;;;;;5059149;28;20111;-53
2023/06/25 02:33:01;;;;;;;15.73;10.43;;;17.70;99.90;;;;;;5067893;28;20054;-55
2023/06/25 02:35:26;;;;;;;14.50;10.30;;;17.90;99.90;;;;;;5087691;28;20040;-51
2023/06/25 02:37:52;;;;;;;14.50;10.27;;;17.60;99.90;;;;;;5071693;28;20075;-52
2023/06/25 02:40:18;;;;;;;14.07;10.57;;;17.90;99.90;;;;;;5088993;28;20031;-54
2023/06/25 02:42:44;;;;;;;16.65;10.73;;;18.00;99.90;;;;;;5084235;28;20604;-52
2023/06/25 02:45:10;;;;;;;13.40;10.20;;;17.60;99.90;;;;;;5070808;28;20040;-53
2023/06/25 02:47:36;;;;;;;14.52;10.85;;;;;;;;;;5078985;28;20041;-55
2023/06/25 02:50:01;;;;;;;16.60;12.20;;;17.70;99.90;;;;;;5074150;28;20044;-56
2023/06/25 02:52:27;;;;;;;16.27;11.65;;;18.00;99.90;;;;;;5084808;28;20050;-56
2023/06/25 02:54:53;;;;;;;14.30;11.32;;;17.70;99.90;;;;;;5079829;28;20096;-55
2023/06/25 02:57:18;;;;;;;17.73;11.75;;;17.70;99.90;;;;;;5068640;28;20421;-54
2023/06/25 02:59:44;;;;;;;18.13;10.18;;;17.60;99.90;;;;;;5065695;28;20429;-53
2023/06/25 03:02:10;;;;;;;13.68;10.82;;;17.90;99.90;;;;;;5067588;28;20048;-55
2023/06/25 03:04:35;;;;;;;14.25;9.95;;;18.00;99.90;;;;;;5085554;28;20382;-56
2023/06/25 03:07:01;;;;;;;16.25;10.52;;;17.70;99.90;;;;;;5077018;28;20044;-54
2023/06/25 03:09:27;;;;;;;14.07;10.00;;;;;;;;;;5078048;28;20500;-52
2023/06/25 03:11:52;;;;;;;14.25;10.25;;;17.60;99.90;;;;;;5063432;28;20044;-54
2023/06/25 03:14:18;;;;;;;18.38;11.80;;;17.60;99.90;;;;;;5084577;28;20121;-56
2023/06/25 03:16:44;;;;;;;15.85;11.60;;;17.90;99.90;;;;;;5065031;28;20122;-56
2023/06/25 03:19:10;;;;;;;17.02;10.45;;;17.60;99.90;;;;;;5076469;28;20124;-55
2023/06/25 03:21:35;;;;;;;14.32;10.52;;;17.00;99.90;;;;;;5077562;28;20047;-55
2023/06/25 03:24:01;;;;;;;15.02;10.77;;;17.60;99.90;;;;;;5085437;28;20421;-56
2023/06/25 03:26:27;;;;;;;15.80;11.60;;;17.50;99.90;;;;;;5057510;28;20044;-54
2023/06/25 03:28:53;;;;;;;14.32;11.18;;;17.40;99.90;;;;;;5078999;28;20180;-54
2023/06/25 03:31:19;;;;;;;15.75;11.50;;;17.90;99.90;;;;;;5067464;28;20040;-56
2023/06/25 03:33:45;;;;;;;16.55;11.27;;;17.00;99.90;;;;;;5065487;28;20044;-55
2023/06/25 03:36:11;;;;;;;15.82;11.90;;;17.30;99.90;;;;;;5085931;28;20512;-56
2023/06/25 03:38:36;;;;;;;15.38;10.25;;;17.40;99.90;;;;;;5088822;28;20417;-52
2023/06/25 03:41:02;;;;;;;15.75;11.35;;;17.60;99.90;;;;;;5084907;28;20090;-56
2023/06/25 03:43:28;;;;;;;17.55;10.88;;;17.30;99.90;;;;;;5078786;28;20032;-52
2023/06/25 03:45:54;;;;;;;15.18;10.70;;;17.60;99.90;;;;;;5082398;28;20491;-53
2023/06/25 03:48:20;;;;;;;15.48;11.00;;;;;;;;;;5080245;28;20490;-55
2023/06/25 03:50:46;;;;;;;14.88;10.35;;;17.70;99.90;;;;;;5083182;28;20115;-54
2023/06/25 03:53:11;;;;;;;15.55;11.95;;;17.80;99.90;;;;;;5068599;28;20611;-55
2023/06/25 03:55:37;;;;;;;17.55;11.07;;;17.70;99.90;;;;;;5066333;28;20535;-52
2023/06/25 03:58:03;;;;;;;13.57;10.77;;;17.70;99.90;;;;;;5078973;28;20070;-54
2023/06/25 04:00:28;;;;;;;17.15;11.80;;;17.90;99.90;;;;;;5078984;28;20120;-55
2023/06/25 04:02:54;;;;;;;17.85;11.85;;;17.80;99.90;;;;;;5086146;28;20050;-52
2023/06/25 04:05:19;;;;;;;18.52;11.25;;;17.90;99.90;;;;;;5083816;28;20032;-55
2023/06/25 04:07:45;;;;;;;14.70;10.73;;;17.80;99.90;;;;;;5092656;28;20032;-55
2023/06/25 04:10:11;;;;;;;13.80;10.77;;;17.60;99.90;;;;;;5078619;28;20497;-54
2023/06/25 04:12:36;;;;;;;14.55;11.30;;;18.10;99.90;;;;;;5079032;28;20052;-56
2023/06/25 04:15:02;;;;;;;17.52;11.70;;;17.70;99.90;;;;;;5083447;28;20561;-55
2023/06/25 04:17:28;;;;;;;15.75;12.57;;;17.50;99.90;;;;;;5092590;28;20513;-54
2023/06/25 04:19:53;;;;;;;17.25;12.13;;;18.00;99.90;;;;;;5085777;28;20110;-56
2023/06/25 04:22:19;;;;;;;16.38;12.15;;;18.00;99.90;;;;;;5078965;28;20044;-56
2023/06/25 04:24:45;;;;;;;17.65;11.82;;;17.90;99.90;;;;;;5079185;28;20045;-56
2023/06/25 04:27:11;;;;;;;16.02;11.40;;;;;;;;;;5062471;28;20055;-53
2023/06/25 04:29:37;;;;;;;16.95;11.50;;;17.70;99.90;;;;;;5078587;28;20047;-56
2023/06/25 04:32:03;;;;;;;15.77;11.90;;;18.10;99.90;;;;;;5080596;28;20119;-54
2023/06/25 04:34:29;;;;;;;17.05;11.77;;;17.30;99.90;;;;;;5088806;28;20032;-56
2023/06/25 04:36:54;;;;;;;16.55;11.63;;;18.10;99.90;;;;;;5085003;28;20052;-54
2023/06/25 04:39:20;;;;;;;16.45;11.38;;;17.90;99.90;;;;;;5090623;28;20335;-56
2023/06/25 04:41:46;;;;;;;17.27;12.10;;;17.70;99.90;;;;;;5066835;28;20051;-55
2023/06/25 04:44:11;;;;;;;16.65;12.32;;;17.90;99.90;;;;;;5090111;28;20027;-55
2023/06/25 04:46:37;;;;;;;15.93;11.23;;;;;;;;;;5086732;28;20040;-55
2023/06/25 04:49:03;;;;;;;19.08;12.45;;;18.30;99.90;;;;;;5083837;28;20111;-55
2023/06/25 04:51:29;;;;;;;16.20;11.57;;;18.20;99.90;;;;;;5081092;28;20129;-55
2023/06/25 04:53:54;;;;;;;16.58;12.57;;;18.20;99.90;;;;;;5090641;28;20396;-57
2023/06/25 04:56:20;;;;;;;20.15;12.73;;;18.90;99.90;;;;;;5083169;28;20036;-56
2023/06/25 04:58:46;;;;;;;15.20;10.90;;;17.60;99.90;;;;;;5088587;28;20382;-56
2023/06/25 05:01:11;;;;;;;14.45;10.60;;;18.10;99.90;;;;;;5091383;28;20100;-56
2023/06/25 05:03:37;;;;;;;14.82;10.57;;;18.10;99.90;;;;;;5091158;28;20036;-56
2023/06/25 05:06:04;;;;;;;19.85;10.57;;;17.90;99.90;;;;;;5089873;28;20035;-56
2023/06/25 05:08:29;;;;;;;17.40;11.20;;;18.00;99.90;;;;;;5066834;28;20036;-57
2023/06/25 05:10:55;;;;;;;16.73;11.30;;;18.20;99.90;;;;;;5091278;28;20028;-57
2023/06/25 05:13:21;;;;;;;14.57;9.25;;;18.40;99.90;;;;;;5056683;28;20059;-54
2023/06/25 05:15:46;;;;;;;17.75;12.20;;;18.90;99.90;;;;;;5082674;28;20038;-57
2023/06/25 05:18:12;;;;;;;14.15;9.95;;;18.40;99.90;;;;;;5064535;28;20508;-56
2023/06/25 05:20:38;;;;;;;14.40;10.80;;;19.30;99.90;;;;;;5082386;28;20081;-56
2023/06/25 05:23:09;;;;;;;15.90;11.48;;;19.30;99.90;;;;;;5072394;28;20123;-56
2023/06/25 05:25:35;;;;;;;15.57;11.13;;;18.80;99.90;;;;;;5078048;28;20104;-56
2023/06/25 05:28:02;;;;;;;14.65;10.43;;;18.80;99.90;;;;;;5090713;28;20032;-57
2023/06/25 05:30:31;;;;;;;13.85;9.77;;;19.50;99.90;;;;;;5090590;28;20028;-56
2023/06/25 05:32:57;;;;;;;14.60;10.20;;;19.40;99.90;;;;;;5090583;28;20039;-56
2023/06/25 05:35:23;;;;;;;14.18;9.63;;;18.50;99.90;;;;;;5090323;28;21383;-56
2023/06/25 05:37:49;;;;;;;12.57;9.52;;;19.40;99.90;;;;;;5090824;28;20166;-55
2023/06/25 05:40:15;;;;;;;17.48;8.98;;;19.90;99.90;;;;;;5089164;28;20043;-55
2023/06/25 05:42:41;;;;;;;13.55;8.98;;;19.20;99.90;;;;;;5071857;28;20044;-56
2023/06/25 05:45:08;;;;;;;13.43;9.75;;;19.20;99.90;;;;;;5083565;28;20028;-56
2023/06/25 05:47:33;;;;;;;12.95;8.75;;;19.40;99.90;;;;;;5086702;28;20050;-56
2023/06/25 05:49:59;;;;;;;12.82;7.50;;;19.40;99.90;;;;;;5090361;28;20400;-56
2023/06/25 05:52:25;;;;;;;11.90;8.23;;;18.70;99.90;;;;;;5082330;28;20038;-56
2023/06/25 05:54:50;;;;;;;10.77;6.68;;;19.50;99.90;;;;;;5078105;28;20449;-56
2023/06/25 05:57:16;;;;;;;10.40;7.43;;;19.00;99.90;;;;;;5072985;28;20085;-56
2023/06/25 05:59:42;;;;;;;12.63;7.65;;;19.50;99.90;;;;;;5081318;28;20118;-54
2023/06/25 06:02:08;;;;;;;10.60;6.95;;;19.60;99.90;;;;;;5064561;28;21040;-54
2023/06/25 06:04:34;;;;;;;9.90;6.07;;;20.10;99.90;;;;;;5082232;28;20036;-55
2023/06/25 06:07:00;;;;;;;9.93;6.97;;;20.00;99.90;;;;;;5084884;28;20135;-54
2023/06/25 06:09:26;;;;;;;8.90;6.57;;;19.80;99.90;;;;;;5090001;28;20482;-54
2023/06/25 06:11:52;;;;;;;12.52;6.53;;;20.30;99.90;;;;;;5065217;28;20116;-54
2023/06/25 06:14:17;;;;;;;10.75;6.75;;;20.60;99.90;;;;;;5086084;28;20028;-53
2023/06/25 06:16:43;;;;;;;9.90;6.70;;;20.00;99.90;;;;;;5083165;28;20040;-53
2023/06/25 06:19:09;;;;;;;10.93;7.15;;;20.10;99.90;;;;;;5088447;28;20051;-56
2023/06/25 06:21:34;;;;;;;10.25;6.20;;;20.00;99.90;;;;;;5090008;28;20380;-55
2023/06/25 06:24:00;;;;;;;10.02;6.45;;;20.30;99.90;;;;;;5089286;28;20383;-55
2023/06/25 06:26:26;;;;;;;12.48;6.35;;;20.40;99.90;;;;;;5089202;28;20114;-55
2023/06/25 06:28:52;;;;;;;9.82;6.35;;;20.00;99.90;;;;;;5082991;28;20410;-53
2023/06/25 06:31:18;;;;;;;9.00;6.22;;;20.30;99.90;;;;;;5088486;28;20028;-52
2023/06/25 06:33:44;;;;;;;9.90;6.13;;;20.50;91.70;;;;;;5087086;28;20039;-53
2023/06/25 06:36:10;;;;;;;11.35;6.82;;;21.00;91.00;;;;;;5082388;28;20488;-56
2023/06/25 06:38:35;;;;;;;11.30;6.80;;;20.30;82.60;;;;;;5089529;28;20075;-54
2023/06/25 06:41:01;;;;;;;9.65;6.20;;;20.10;77.50;;;;;;5088265;28;20048;-55
2023/06/25 06:43:27;;;;;;;10.82;7.30;;;20.60;72.20;;;;;;5088861;28;20070;-52
2023/06/25 06:45:52;;;;;;;9.80;7.20;;;21.00;69.80;;;;;;5083413;28;20046;-55
2023/06/25 06:48:18;;;;;;;10.80;7.30;;;20.40;65.60;;;;;;5080863;28;20108;-53
2023/06/25 06:50:44;;;;;;;9.38;6.72;;;21.50;63.00;;;;;;5089728;28;20036;-54
2023/06/25 06:53:09;;;;;;;9.55;6.78;;;20.80;53.50;;;;;;5088840;28;20089;-52
2023/06/25 06:55:35;;;;;;;10.18;7.85;;;21.40;53.50;;;;;;5089218;28;20076;-53
2023/06/25 06:58:01;;;;;;;10.32;7.10;;;20.70;52.40;;;;;;5089475;28;20497;-53
2023/06/25 07:00:27;;;;;;;10.65;6.88;;;20.90;33.40;;;;;;5089194;28;20044;-54
2023/06/25 07:02:57;;;;;;;12.40;7.95;;;20.60;17.10;;;;;;5089050;28;20040;-54
2023/06/25 07:05:23;;;;;;;11.27;8.43;;;20.90;9.20;;;;;;5066491;28;20055;-53
2023/06/25 07:07:49;;;;;;;11.38;9.38;;;21.20;6.90;;;;;;5071110;28;20036;-53
2023/06/25 07:10:14;;;;;;;11.40;8.50;;;21.50;1.00;;;;;;5070766;28;20036;-53
2023/06/25 07:12:40;;;;;;;12.10;8.68;;;22.00;1.00;;;;;;5071028;28;20040;-53
2023/06/25 07:15:06;;;;;;;13.60;8.98;;;21.10;1.00;;;;;;5074474;28;20169;-54
2023/06/25 07:17:32;;;;;;;13.30;9.43;;;22.10;1.00;;;;;;5070746;28;20510;-54
2023/06/25 07:19:58;;;;;;;12.52;9.70;;;21.10;1.00;;;;;;5089239;28;20036;-52
2023/06/25 07:22:23;;;;;;;13.40;9.73;;;21.20;1.00;;;;;;5088442;28;22270;-55
2023/06/25 07:24:49;;;;;;;11.68;9.30;;;21.40;1.00;;;;;;5082403;28;20036;-55
2023/06/25 07:27:14;;;;;;;12.50;9.75;;;22.30;1.00;;;;;;5086759;28;20153;-52
2023/06/25 07:29:40;;;;;;;12.25;9.50;;;22.00;1.00;;;;;;5091758;28;20050;-55
2023/06/25 07:32:06;;;;;;;12.27;9.70;;;22.30;1.00;;;;;;5074386;28;20470;-52
2023/06/25 07:34:32;;;;;;;14.52;11.27;;;22.30;1.00;;;;;;5092258;28;20539;-53
2023/06/25 07:36:58;;;;;;;12.25;9.70;;;22.40;1.00;;;;;;5074207;28;20063;-52
2023/06/25 07:39:29;;;;;;;13.85;11.13;;;22.40;1.00;;;;;;5084162;28;21184;-54
2023/06/25 07:41:56;;;;;;;12.93;10.27;;;22.50;1.00;;;;;;5092948;28;20039;-54
2023/06/25 07:44:22;;;;;;;13.60;11.13;;;22.50;1.00;;;;;;5089036;28;20038;-55
2023/06/25 07:46:48;;;;;;;11.90;10.20;;;22.50;1.00;;;;;;5088789;28;20389;-52
2023/06/25 07:49:14;;;;;;;12.88;11.23;;;23.00;1.00;;;;;;5074153;28;20581;-53
2023/06/25 07:51:42;;;;;;;13.57;11.45;;;22.60;1.00;;;;;;5092609;28;20043;-54
2023/06/25 07:54:08;;;;;;;14.05;11.82;;;22.90;1.00;;;;;;5091629;28;20094;-52
2023/06/25 07:56:34;;;;;;;11.13;9.43;;;22.60;1.00;;;;;;5084015;28;20024;-51
2023/06/25 07:58:59;;;;;;;12.63;11.00;;;22.40;1.00;;;;;;5073997;28;20134;-52
2023/06/25 08:01:25;;;;;;;14.20;10.98;;;22.70;1.00;;;;;;5083293;28;20139;-52
2023/06/25 08:03:51;;;;;;;12.52;10.55;;;22.70;1.00;;;;;;5083372;28;20039;-55
2023/06/25 08:06:16;;;;;;;11.80;10.15;;;23.10;1.00;;;;;;5082251;28;20067;-52
2023/06/25 08:08:42;;;;;;;10.93;9.65;;;23.00;1.00;;;;;;5091810;28;20032;-53
2023/06/25 08:11:07;;;;;;;13.90;10.90;;;22.80;1.00;;;;;;5091726;28;20078;-54
2023/06/25 08:13:33;;;;;;;12.55;10.55;;;23.10;99.90;;;;;;5091991;28;20123;-54
2023/06/25 08:15:59;;;;;;;11.40;9.60;;;23.10;99.90;;;;;;5073412;28;20040;-55
2023/06/25 08:18:24;;;;;;;12.52;10.88;;;22.70;99.90;;;;;;5072586;28;20050;-56
2023/06/25 08:20:50;;;;;;;11.52;9.70;;;26.10;99.90;;;;;;5091734;28;20131;-54
2023/06/25 08:23:15;;;;;;;12.30;8.75;;;22.90;99.90;;;;;;5090536;28;20036;-53
2023/06/25 08:25:41;;;;;;;13.45;10.73;;;23.20;99.90;;;;;;5083099;28;20374;-53
2023/06/25 08:28:07;;;;;;;11.55;10.10;;;23.90;99.90;;;;;;5073318;28;20044;-55
2023/06/25 08:30:33;;;;;;;11.43;8.73;;;23.30;99.90;;;;;;5083226;28;20039;-57
2023/06/25 08:32:58;;;;;;;10.60;8.45;;;23.40;99.90;;;;;;5088937;28;20098;-55
2023/06/25 08:35:24;;;;;;;11.55;8.85;;;24.40;99.90;;;;;;5082748;28;20100;-54
2023/06/25 08:37:49;;;;;;;13.35;8.50;;;23.60;99.90;;;;;;5092430;28;20051;-55
2023/06/25 08:40:18;;;;;;;10.93;9.02;;;24.10;99.90;;;;;;5073553;28;20049;-56
2023/06/25 08:42:44;;;;;;;10.95;8.48;;;23.90;99.90;;;;;;5073427;28;20117;-56
2023/06/25 08:45:10;;;;;;;10.07;7.85;;;23.80;99.90;;;;;;5085076;28;20032;-54
2023/06/25 08:47:40;;;;;;;10.80;9.35;;;23.30;99.90;;;;;;5091948;28;20039;-57
2023/06/25 08:50:09;;;;;;;10.77;7.82;;;23.80;99.90;;;;;;5091348;28;20075;-55
2023/06/25 08:52:35;;;;;;;8.95;7.18;;;24.00;99.90;;;;;;5065984;28;20083;-57
2023/06/25 08:55:01;;;;;;;9.43;6.60;;;23.90;99.90;;;;;;5083275;28;20049;-55
2023/06/25 08:57:27;;;;;;;9.23;7.13;;;23.90;99.90;;;;;;5088334;28;20044;-56
2023/06/25 08:59:52;;;;;;;8.38;6.50;;;25.00;99.90;;;;;;5086066;28;20083;-54
2023/06/25 09:02:18;;;;;;;8.55;6.20;;;24.00;99.90;;;;;;5083012;28;20032;-56
2023/06/25 09:04:46;;;;;;;8.65;6.35;;;24.80;6.80;;;;;;5084820;28;20043;-56
2023/06/25 09:07:15;;;;;;;9.73;6.10;;;24.00;1.00;;;;;;5064531;28;20044;-54
2023/06/25 09:09:44;;;;;;;8.73;6.35;;;24.40;1.00;;;;;;5057113;28;20056;-54
2023/06/25 09:12:10;;;;;;;8.00;6.07;;;24.40;1.00;;;;;;5085892;28;20040;-52
2023/06/25 09:14:36;;;;;;;9.30;5.72;;;24.50;1.00;;;;;;5068551;28;20048;-56
2023/06/25 09:17:03;;;;;;;8.65;5.43;;;24.40;1.00;;;;;;5068796;28;20047;-55
2023/06/25 09:19:28;;;;;;;10.25;5.90;;;25.00;1.00;;;;;;5068627;28;20433;-56
2023/06/25 09:21:54;;;;;;;7.20;4.85;;;24.50;99.90;;;;;;5074907;28;20044;-52
2023/06/25 09:24:21;;;;;;;11.25;5.10;;;24.30;99.90;;;;;;5068171;28;20042;-54
2023/06/25 09:26:52;;;;;;;7.65;4.75;;;24.90;99.90;;;;;;5074583;28;20047;-56
2023/06/25 09:29:20;;;;;;;8.27;4.35;;;25.70;99.90;;;;;;5068943;28;20122;-55
2023/06/25 09:31:48;;;;;;;9.10;5.38;;;25.70;99.90;;;;;;5079429;28;20028;-53
2023/06/25 09:34:16;;;;;;;8.00;5.43;;;26.00;99.90;;;;;;5068763;28;20551;-54
2023/06/25 09:36:42;;;;;;;8.60;5.35;;;25.80;99.90;;;;;;5085326;28;20043;-54
2023/06/25 09:39:09;;;;;;;8.18;5.25;;;25.00;99.90;;;;;;5083422;28;20075;-54
2023/06/25 09:41:36;;;;;;;7.68;4.30;;;25.90;99.90;;;;;;5083140;28;20097;-56
2023/06/25 09:44:04;;;;;;;8.32;5.00;;;25.90;99.90;;;;;;5090299;28;20090;-56
2023/06/25 09:46:34;;;;;;;7.32;4.50;;;26.10;99.90;;;;;;5072348;28;20039;-56
2023/06/25 09:49:01;;;;;;;8.57;5.30;;;25.90;82.30;;;;;;5068205;28;20036;-53
2023/06/25 09:51:50;;;;;;;6.43;4.30;;;26.20;32.60;;;;;;5081276;28;20103;-53
2023/06/25 09:54:19;;;;;;;7.13;4.45;;;26.20;1.00;;;;;;5085566;28;20044;-56
2023/06/25 09:56:46;;;;;;;8.57;4.43;;;26.30;1.00;;;;;;5066292;28;20055;-55
2023/06/25 09:59:13;;;;;;;9.23;4.57;;;26.40;1.00;;;;;;5090025;28;20044;-54
2023/06/25 10:01:39;;;;;;;7.18;4.78;;;24.80;1.00;;;;;;5090904;28;20032;-55
2023/06/25 10:04:04;;;;;;;6.53;4.28;;;26.90;1.00;;;;;;5090337;28;20504;-54
2023/06/25 10:06:32;;;;;;;6.78;4.07;;;26.90;99.90;;;;;;5071919;28;20513;-55
2023/06/25 10:08:57;;;;;;;6.88;4.18;;;26.60;1.00;;;;;;5089915;28;20120;-56
2023/06/25 10:11:23;;;;;;;6.78;4.47;;;26.50;99.90;;;;;;5089739;28;20098;-56
2023/06/25 10:13:51;;;;;;;7.35;4.50;;;26.90;99.90;;;;;;5089506;28;20040;-57
2023/06/25 10:16:19;;;;;;;7.70;3.80;;;26.80;99.90;;;;;;5078118;28;20040;-56
2023/06/25 10:18:45;;;;;;;8.02;4.82;;;27.00;99.90;;;;;;5090230;28;20036;-55
2023/06/25 10:21:19;;;;;;;7.60;4.88;;;27.30;99.90;;;;;;5089507;28;20044;-56
2023/06/25 10:23:57;;;;;;;6.78;4.03;;;26.90;99.90;;;;;;5089652;28;20681;-56
2023/06/25 10:26:50;;;;;;;9.07;5.15;;;26.80;99.90;;;;;;5077207;28;20081;-57
2023/06/25 10:29:16;;;;;;;6.85;4.18;;;27.10;99.90;;;;;;5069456;28;20044;-56
2023/06/25 10:31:46;;;;;;;8.43;4.47;;;27.00;99.90;;;;;;5089834;28;20397;-57
2023/06/25 10:34:13;;;;;;;7.93;4.28;;;26.90;99.90;;;;;;5053961;28;20048;-57
2023/06/25 10:36:49;;;;;;;7.63;4.25;;;26.80;99.90;;;;;;5089429;28;20040;-57
2023/06/25 10:39:15;;;;;;;7.65;4.32;;;27.20;99.90;;;;;;5089409;28;20036;-57
2023/06/25 10:41:47;;;;;;;7.13;4.20;;;26.90;99.90;;;;;;5089601;28;20578;-56
2023/06/25 10:44:12;;;;;;;7.63;4.03;;;27.20;99.90;;;;;;5088840;28;20086;-57
2023/06/25 10:46:38;;;;;;;8.20;4.43;;;27.40;99.90;;;;;;5089815;28;20040;-57
2023/06/25 10:49:04;;;;;;;7.43;4.72;;;27.60;99.90;;;;;;5089477;28;20444;-57
2023/06/25 10:51:30;;;;;;;7.80;4.20;;;28.20;99.90;;;;;;5088960;28;20458;-56
2023/06/25 10:53:56;;;;;;;9.02;4.40;;;27.60;99.90;;;;;;5089445;28;20063;-57
2023/06/25 10:56:22;;;;;;;6.85;3.78;;;27.40;99.90;;;;;;5081214;28;20082;-57
2023/06/25 10:58:58;;;;;;;7.50;4.57;;;27.60;99.90;;;;;;5089386;28;20047;-56
2023/06/25 11:01:24;;;;;;;6.00;4.03;;;27.60;99.90;;;;;;5088839;28;20040;-58
2023/06/25 11:03:50;;;;;;;6.93;4.47;;;28.60;99.90;;;;;;5090121;28;20036;-57
2023/06/25 11:06:17;;;;;;;6.75;3.92;;;28.80;99.90;;;;;;5066422;28;20119;-56
2023/06/25 11:08:43;;;;;;;6.75;3.83;;;29.00;99.90;;;;;;5085349;28;20055;-57
2023/06/25 11:11:09;;;;;;;9.27;4.20;;;28.00;99.90;;;;;;5093058;28;20024;-57
2023/06/25 11:13:34;;;;;;;6.13;4.10;;;29.10;99.90;;;;;;5074018;28;20049;-56
2023/06/25 11:16:00;;;;;;;6.88;4.10;;;29.10;99.90;;;;;;5089747;28;20040;-56
2023/06/25 11:18:25;;;;;;;6.95;3.80;;;28.10;99.90;;;;;;5075233;28;20048;-57
2023/06/25 11:20:53;;;;;;;6.00;3.72;;;29.10;99.90;;;;;;5082097;28;20400;-57
2023/06/25 11:23:19;;;;;;;6.53;3.47;;;28.30;99.90;;;;;;5083851;28;20455;-57
2023/06/25 11:25:45;;;;;;;6.28;3.88;;;28.10;99.90;;;;;;5084735;28;20107;-57
2023/06/25 11:28:13;;;;;;;6.65;3.72;;;28.10;99.90;;;;;;5091311;28;20032;-57
2023/06/25 11:30:39;;;;;;;5.82;3.55;;;29.20;99.90;;;;;;5093482;28;20036;-58
2023/06/25 11:33:15;;;;;;;7.10;3.70;;;28.20;99.90;;;;;;5090038;28;20115;-58
2023/06/25 11:35:41;;;;;;;6.40;3.60;;;28.20;99.90;;;;;;5067488;28;20048;-58
2023/06/25 11:38:07;;;;;;;6.15;3.72;;;29.30;99.90;;;;;;5092634;28;20075;-57
2023/06/25 11:40:36;;;;;;;7.13;3.85;;;28.90;99.90;;;;;;5093271;28;20055;-58
2023/06/25 11:43:02;;;;;;;7.05;3.95;;;28.90;99.90;;;;;;5092618;28;20046;-57
2023/06/25 11:45:41;;;;;;;6.68;4.15;;;29.60;99.90;;;;;;5091958;28;20351;-57
2023/06/25 11:48:12;;;;;;;5.43;3.15;;;29.20;99.90;;;;;;5057548;28;20036;-58
2023/06/25 11:50:38;;;;;;;8.00;3.95;;;29.90;99.90;;;;;;5081132;28;20120;-58
2023/06/25 11:53:04;;;;;;;8.40;4.07;;;30.00;99.90;;;;;;5062646;28;20120;-56
2023/06/25 11:55:29;;;;;;;7.07;3.67;;;30.00;99.90;;;;;;5066724;28;20463;-58
2023/06/25 11:57:55;;;;;;;6.40;3.35;;;29.30;99.90;;;;;;5074469;28;20446;-55
2023/06/25 12:00:21;;;;;;;6.07;3.53;;;29.60;99.90;;;;;;5092227;28;20127;-55
2023/06/25 12:02:46;;;;;;;6.35;3.88;;;29.90;99.90;;;;;;5084513;28;20032;-56
2023/06/25 12:05:13;;;;;;;6.90;3.78;;;29.80;99.90;;;;;;5091035;28;20032;-55
2023/06/25 12:07:38;;;;;;;6.05;3.70;;;28.70;99.90;;;;;;5075462;28;20036;-55
2023/06/25 12:10:05;;;;;;;7.95;3.50;;;29.70;99.90;;;;;;5087491;28;20042;-54
2023/06/25 12:23:15;;;;;;;7.00;3.72;;;29.40;98.40;;;;;;5095335;22;20072;-58
2023/06/25 12:25:40;;;;;;;6.70;3.20;;;30.30;97.80;;;;;;5084068;28;20071;-58
2023/06/25 12:28:06;;;;;;;6.68;3.42;;;30.50;95.70;;;;;;5067567;28;20693;-58
2023/06/25 12:30:32;;;;;;;7.07;3.50;;;30.70;98.30;;;;;;5079875;28;20124;-56
2023/06/25 12:32:57;;;;;;;6.60;3.78;;;30.90;98.20;;;;;;5068064;28;20406;-55
2023/06/25 12:35:23;;;;;;;6.85;3.80;;;30.40;99.90;;;;;;5080009;28;20676;-57
2023/06/25 12:37:49;;;;;;;6.53;3.67;;;31.50;99.90;;;;;;5070298;28;20203;-54
2023/06/25 12:40:15;;;;;;;7.32;4.07;;;31.80;98.40;;;;;;5084421;28;20036;-56
2023/06/25 12:42:40;;;;;;;6.90;3.92;;;33.20;92.40;;;;;;5070531;28;20385;-56
2023/06/25 12:45:08;;;;;;;6.80;3.95;;;34.60;78.70;;;;;;5075157;28;20079;-56
2023/06/25 12:47:33;;;;;;;7.38;4.10;;;36.10;75.80;;;;;;5045864;28;20063;-56